Time,TemperatureF,DewpointF,PressureIn,WindDirection,WindDirectionDegrees,WindSpeedMPH,WindSpeedGustMPH,Humidity,HourlyPrecipIn,Conditions,Clouds,dailyrainin,SoftwareType,DateUTC
2013-06-30 00:01:00,68.0,64.4,29.27,SE,135,0.2,0.2,88,0.00,,,0.00,WUHU216HW,2013-06-30 04:01:00,
2013-06-30 00:02:00,68.0,64.4,29.27,SE,135,0.2,0.2,88,0.00,,,0.00,WUHU216HW,2013-06-30 04:02:00,
2013-06-30 00:07:00,68.0,64.4,29.27,SE,135,0.2,0.2,88,0.00,,,0.00,WUHU216HW,2013-06-30 04:07:00,
2013-06-30 00:30:00,68.0,64.4,29.27,SSE,158,0.0,0.0,88,0.00,,,0.00,WUHU216HW,2013-06-30 04:30:00,
2013-06-30 00:34:00,68.0,64.4,29.27,SSE,158,0.0,0.0,88,0.00,,,0.00,WUHU216HW,2013-06-30 04:34:00,
2013-06-30 01:00:00,67.7,63.6,29.28,SSW,203,0.0,0.0,87,0.00,,,0.00,WUHU216HW,2013-06-30 05:00:00,
2013-06-30 01:05:00,67.7,63.6,29.28,SSW,203,0.0,0.0,87,0.00,,,0.00,WUHU216HW,2013-06-30 05:05:00,
2013-06-30 01:30:00,67.0,63.3,29.28,SSE,158,0.0,0.0,88,0.00,,,0.00,WUHU216HW,2013-06-30 05:30:00,
2013-06-30 01:35:00,67.0,63.3,29.28,SSE,158,0.0,0.0,88,0.00,,,0.00,WUHU216HW,2013-06-30 05:35:00,
2013-06-30 02:00:00,66.6,62.9,29.28,SSE,158,0.0,0.0,88,0.00,,,0.00,WUHU216HW,2013-06-30 06:00:00,
2013-06-30 02:05:00,66.6,62.9,29.28,SSE,158,0.0,0.0,88,0.00,,,0.00,WUHU216HW,2013-06-30 06:05:00,
2013-06-30 02:30:00,66.2,62.6,29.28,SSE,158,0.0,0.0,88,0.00,,,0.00,WUHU216HW,2013-06-30 06:30:00,
2013-06-30 02:35:00,66.2,62.6,29.28,SSE,158,0.0,0.0,88,0.00,,,0.00,WUHU216HW,2013-06-30 06:35:00,
2013-06-30 03:00:00,66.4,62.7,29.27,SSE,158,0.0,0.0,88,0.00,,,0.00,WUHU216HW,2013-06-30 07:00:00,
2013-06-30 03:05:00,66.4,62.7,29.27,SSE,158,0.0,0.0,88,0.00,,,0.00,WUHU216HW,2013-06-30 07:05:00,
2013-06-30 03:30:00,66.6,63.2,29.27,SSE,158,0.2,0.2,89,0.00,,,0.00,WUHU216HW,2013-06-30 07:30:00,
2013-06-30 03:35:00,66.6,63.2,29.27,SSE,158,0.2,0.2,89,0.00,,,0.00,WUHU216HW,2013-06-30 07:35:00,
2013-06-30 03:59:00,66.6,63.2,29.27,SSE,158,0.0,0.0,89,0.00,,,0.00,WUHU216HW,2013-06-30 07:59:00,
2013-06-30 04:04:00,66.6,63.2,29.27,SSE,158,0.0,0.0,89,0.00,,,0.00,WUHU216HW,2013-06-30 08:04:00,
2013-06-30 04:29:00,66.4,63.0,29.28,SSE,158,0.0,0.0,89,0.00,,,0.00,WUHU216HW,2013-06-30 08:29:00,
2013-06-30 04:34:00,66.4,63.0,29.28,SSE,158,0.0,0.0,89,0.00,,,0.00,WUHU216HW,2013-06-30 08:34:00,
2013-06-30 04:59:00,66.2,62.8,29.28,SSE,158,0.0,0.0,89,0.00,,,0.00,WUHU216HW,2013-06-30 08:59:00,
2013-06-30 05:04:00,66.2,62.8,29.28,SSE,158,0.0,0.0,89,0.00,,,0.00,WUHU216HW,2013-06-30 09:04:00,
2013-06-30 05:29:00,66.2,62.8,29.29,SSE,158,0.0,0.0,89,0.00,,,0.00,WUHU216HW,2013-06-30 09:29:00,
2013-06-30 05:35:00,66.2,62.8,29.29,SSE,158,0.0,0.0,89,0.00,,,0.00,WUHU216HW,2013-06-30 09:35:00,
2013-06-30 05:59:00,66.2,62.8,29.30,South,180,0.0,0.0,89,0.00,,,0.00,WUHU216HW,2013-06-30 09:59:00,
2013-06-30 06:04:00,66.2,62.8,29.30,South,180,0.0,0.0,89,0.00,,,0.00,WUHU216HW,2013-06-30 10:04:00,
2013-06-30 06:29:00,66.2,62.8,29.32,SSW,203,0.2,0.2,89,0.00,,,0.00,WUHU216HW,2013-06-30 10:29:00,
2013-06-30 06:34:00,66.2,62.8,29.32,SSW,203,0.2,0.2,89,0.00,,,0.00,WUHU216HW,2013-06-30 10:34:00,
2013-06-30 06:59:00,66.6,63.5,29.32,SSW,203,0.0,0.0,90,0.00,,,0.00,WUHU216HW,2013-06-30 10:59:00,
2013-06-30 07:04:00,66.6,63.5,29.32,SSW,203,0.0,0.0,90,0.00,,,0.00,WUHU216HW,2013-06-30 11:04:00,
2013-06-30 07:29:00,67.3,64.3,29.33,SSE,158,1.1,1.1,90,0.00,,,0.00,WUHU216HW,2013-06-30 11:29:00,
2013-06-30 07:34:00,67.3,64.3,29.33,SSE,158,1.1,1.1,90,0.00,,,0.00,WUHU216HW,2013-06-30 11:34:00,
2013-06-30 07:59:00,68.0,65.0,29.34,ESE,113,0.2,0.2,90,0.00,,,0.00,WUHU216HW,2013-06-30 11:59:00,
2013-06-30 08:04:00,68.0,65.0,29.34,ESE,113,0.2,0.2,90,0.00,,,0.00,WUHU216HW,2013-06-30 12:04:00,
2013-06-30 08:29:00,68.8,65.7,29.35,ESE,113,0.4,0.4,90,0.00,,,0.00,WUHU216HW,2013-06-30 12:29:00,
2013-06-30 08:34:00,68.8,65.7,29.35,ESE,113,0.4,0.4,90,0.00,,,0.00,WUHU216HW,2013-06-30 12:34:00,
2013-06-30 08:59:00,69.8,66.8,29.35,ESE,113,0.7,0.7,90,0.00,,,0.00,WUHU216HW,2013-06-30 12:59:00,
2013-06-30 09:04:00,69.8,66.8,29.35,ESE,113,0.7,0.7,90,0.00,,,0.00,WUHU216HW,2013-06-30 13:04:00,
2013-06-30 09:29:00,71.6,67.9,29.35,SE,135,0.9,0.9,88,0.00,,,0.00,WUHU216HW,2013-06-30 13:29:00,
2013-06-30 09:35:00,71.6,67.9,29.35,SE,135,0.9,0.9,88,0.00,,,0.00,WUHU216HW,2013-06-30 13:35:00,
2013-06-30 09:59:00,73.8,69.8,29.34,SSE,158,1.3,1.3,87,0.00,,,0.00,WUHU216HW,2013-06-30 13:59:00,
2013-06-30 10:04:00,73.8,69.8,29.34,SSE,158,1.3,1.3,87,0.00,,,0.00,WUHU216HW,2013-06-30 14:04:00,
2013-06-30 10:30:00,74.5,70.1,29.34,SSW,203,1.1,1.1,86,0.00,,,0.00,WUHU216HW,2013-06-30 14:30:00,
2013-06-30 10:35:00,74.5,70.1,29.34,SSW,203,1.1,1.1,86,0.00,,,0.00,WUHU216HW,2013-06-30 14:35:00,
2013-06-30 10:59:00,76.5,70.9,29.35,SSW,203,0.4,0.4,83,0.00,,,0.00,WUHU216HW,2013-06-30 14:59:00,
2013-06-30 11:04:00,76.5,70.9,29.35,SSW,203,0.4,0.4,83,0.00,,,0.00,WUHU216HW,2013-06-30 15:04:00,
2013-06-30 11:30:00,77.8,71.5,29.34,ESE,113,1.1,1.1,81,0.00,,,0.00,WUHU216HW,2013-06-30 15:30:00,
2013-06-30 11:35:00,77.8,71.5,29.34,ESE,113,1.1,1.1,81,0.00,,,0.00,WUHU216HW,2013-06-30 15:35:00,
2013-06-30 11:59:00,81.0,73.5,29.34,SSE,158,1.6,1.6,78,0.00,,,0.00,WUHU216HW,2013-06-30 15:59:00,
2013-06-30 12:04:00,81.0,73.5,29.34,SSE,158,1.6,1.6,78,0.00,,,0.00,WUHU216HW,2013-06-30 16:04:00,
2013-06-30 12:29:00,85.7,75.2,29.34,South,180,1.8,1.8,71,0.00,,,0.00,WUHU216HW,2013-06-30 16:29:00,
2013-06-30 12:34:00,85.7,75.2,29.34,South,180,1.8,1.8,71,0.00,,,0.00,WUHU216HW,2013-06-30 16:34:00,
2013-06-30 12:59:00,84.2,74.3,29.34,West,270,0.9,0.9,72,0.00,,,0.00,WUHU216HW,2013-06-30 16:59:00,
2013-06-30 13:04:00,84.2,74.3,29.34,West,270,0.9,0.9,72,0.00,,,0.00,WUHU216HW,2013-06-30 17:04:00,
2013-06-30 13:29:00,84.6,74.6,29.33,SSW,203,1.1,1.1,72,0.00,,,0.00,WUHU216HW,2013-06-30 17:29:00,
2013-06-30 13:34:00,84.6,74.6,29.33,SSW,203,1.1,1.1,72,0.00,,,0.00,WUHU216HW,2013-06-30 17:34:00,
2013-06-30 14:00:00,83.5,73.9,29.33,SE,135,0.4,0.4,73,0.00,,,0.00,WUHU216HW,2013-06-30 18:00:00,
2013-06-30 14:05:00,83.5,73.9,29.33,SE,135,0.4,0.4,73,0.00,,,0.00,WUHU216HW,2013-06-30 18:05:00,
2013-06-30 14:30:00,85.7,74.9,29.32,North,0,3.1,3.1,70,0.00,,,0.00,WUHU216HW,2013-06-30 18:30:00,
2013-06-30 14:35:00,85.7,74.9,29.32,North,0,3.1,3.1,70,0.00,,,0.00,WUHU216HW,2013-06-30 18:35:00,
2013-06-30 15:00:00,87.8,74.2,29.31,SE,135,4.5,4.5,64,0.00,,,0.00,WUHU216HW,2013-06-30 19:00:00,
2013-06-30 15:05:00,87.8,74.2,29.31,SE,135,4.5,4.5,64,0.00,,,0.00,WUHU216HW,2013-06-30 19:05:00,
2013-06-30 15:30:00,86.4,73.3,29.31,SSE,158,3.4,3.4,65,0.00,,,0.00,WUHU216HW,2013-06-30 19:30:00,
2013-06-30 15:35:00,86.4,73.3,29.31,SSE,158,3.4,3.4,65,0.00,,,0.00,WUHU216HW,2013-06-30 19:35:00,
2013-06-30 16:00:00,88.2,72.7,29.30,SSE,158,3.8,3.8,60,0.00,,,0.00,WUHU216HW,2013-06-30 20:00:00,
2013-06-30 16:05:00,88.2,72.7,29.30,SSE,158,3.8,3.8,60,0.00,,,0.00,WUHU216HW,2013-06-30 20:05:00,
2013-06-30 16:30:00,86.6,72.0,29.30,SW,225,4.3,4.3,62,0.00,,,0.00,WUHU216HW,2013-06-30 20:30:00,
2013-06-30 16:35:00,86.6,72.0,29.30,SW,225,4.3,4.3,62,0.00,,,0.00,WUHU216HW,2013-06-30 20:35:00,
2013-06-30 16:59:00,83.5,72.7,29.31,SE,135,2.0,2.0,70,0.00,,,0.00,WUHU216HW,2013-06-30 20:59:00,
2013-06-30 17:04:00,83.5,72.7,29.31,SE,135,2.0,2.0,70,0.00,,,0.00,WUHU216HW,2013-06-30 21:04:00,
2013-06-30 17:29:00,82.4,72.9,29.32,SSE,158,4.0,4.0,73,0.00,,,0.00,WUHU216HW,2013-06-30 21:29:00,
2013-06-30 17:34:00,82.4,72.9,29.32,SSE,158,4.0,4.0,73,0.00,,,0.00,WUHU216HW,2013-06-30 21:34:00,
2013-06-30 17:59:00,81.4,71.9,29.30,SE,135,6.3,6.3,73,0.00,,,0.00,WUHU216HW,2013-06-30 21:59:00,
2013-06-30 18:04:00,81.4,71.9,29.30,SE,135,6.3,6.3,73,0.00,,,0.00,WUHU216HW,2013-06-30 22:04:00,
2013-06-30 18:29:00,80.8,70.6,29.33,SSW,203,4.0,4.0,71,0.00,,,0.00,WUHU216HW,2013-06-30 22:29:00,
2013-06-30 18:34:00,80.8,70.6,29.33,SSW,203,4.0,4.0,71,0.00,,,0.00,WUHU216HW,2013-06-30 22:34:00,
2013-06-30 18:59:00,81.2,70.9,29.34,SSW,203,0.4,0.4,71,0.00,,,0.00,WUHU216HW,2013-06-30 22:59:00,
2013-06-30 19:04:00,81.2,70.9,29.34,SSW,203,0.4,0.4,71,0.00,,,0.00,WUHU216HW,2013-06-30 23:04:00,
2013-06-30 19:29:00,81.4,72.3,29.35,SSE,158,1.8,1.8,74,0.00,,,0.00,WUHU216HW,2013-06-30 23:29:00,
2013-06-30 19:35:00,81.4,72.3,29.35,SSE,158,1.8,1.8,74,0.00,,,0.00,WUHU216HW,2013-06-30 23:35:00,
2013-06-30 19:59:00,79.4,71.1,29.36,NNW,338,1.8,1.8,76,0.00,,,0.00,WUHU216HW,2013-06-30 23:59:00,
2013-06-30 20:04:00,79.4,71.1,29.36,NNW,338,1.8,1.8,76,0.00,,,0.00,WUHU216HW,2013-07-01 00:04:00,
2013-06-30 20:29:00,77.4,69.6,29.37,NNE,23,3.1,3.1,77,0.00,,,0.00,WUHU216HW,2013-07-01 00:29:00,
2013-06-30 20:35:00,77.4,69.6,29.37,NNE,23,3.1,3.1,77,0.00,,,0.00,WUHU216HW,2013-07-01 00:35:00,
2013-06-30 20:59:00,75.2,68.0,29.38,NNE,23,1.1,1.1,78,0.00,,,0.00,WUHU216HW,2013-07-01 00:59:00,
2013-06-30 21:04:00,75.2,68.0,29.38,NNE,23,1.1,1.1,78,0.00,,,0.00,WUHU216HW,2013-07-01 01:04:00,
2013-06-30 21:29:00,74.2,67.3,29.39,NNE,23,1.1,1.1,79,0.00,,,0.00,WUHU216HW,2013-07-01 01:29:00,
2013-06-30 21:34:00,74.2,67.3,29.39,NNE,23,1.1,1.1,79,0.00,,,0.00,WUHU216HW,2013-07-01 01:34:00,
2013-06-30 21:59:00,73.4,67.0,29.40,NNE,23,0.2,0.2,80,0.00,,,0.00,WUHU216HW,2013-07-01 01:59:00,
2013-06-30 22:04:00,73.4,67.0,29.40,NNE,23,0.2,0.2,80,0.00,,,0.00,WUHU216HW,2013-07-01 02:04:00,
2013-06-30 22:29:00,72.7,66.6,29.40,ESE,113,0.7,0.7,81,0.00,,,0.00,WUHU216HW,2013-07-01 02:29:00,
2013-06-30 22:34:00,72.7,66.6,29.40,ESE,113,0.7,0.7,81,0.00,,,0.00,WUHU216HW,2013-07-01 02:34:00,
2013-06-30 22:59:00,72.4,66.3,29.40,East,90,0.2,0.2,81,0.00,,,0.00,WUHU216HW,2013-07-01 02:59:00,
2013-06-30 23:04:00,72.4,66.3,29.40,East,90,0.2,0.2,81,0.00,,,0.00,WUHU216HW,2013-07-01 03:04:00,
2013-06-30 23:30:00,72.4,66.6,29.40,East,90,0.0,0.0,82,0.00,,,0.00,WUHU216HW,2013-07-01 03:30:00,
2013-06-30 23:35:00,72.4,66.6,29.40,East,90,0.0,0.0,82,0.00,,,0.00,WUHU216HW,2013-07-01 03:35:00,
2013-06-30 23:59:00,72.2,66.7,29.40,East,90,0.0,0.0,83,0.00,,,0.00,WUHU216HW,2013-07-01 03:59:00,